sensor_id;sensor_type;location;lat;lon;timestamp;pressure;altitude;pressure_sealevel;temperature;humidity
45253;BME280;63171;50.520;30.486;2023-04-19T00:02:32;99965.56;;;11.13;53.13
45253;BME280;63171;50.520;30.486;2023-04-19T00:03:24;99974.63;;;11.21;53.22
45253;BME280;63171;50.520;30.486;2023-04-19T00:04:14;99976.78;;;11.29;53.33
45253;BME280;63171;50.520;30.486;2023-04-19T00:05:05;99967.75;;;11.33;53.37
45253;BME280;63171;50.520;30.486;2023-04-19T00:05:55;99970.97;;;11.38;53.36
45253;BME280;63171;50.520;30.486;2023-04-19T00:06:47;99971.78;;;11.39;53.19
45253;BME280;63171;50.520;30.486;2023-04-19T00:07:37;99965.72;;;11.38;52.98
45253;BME280;63171;50.520;30.486;2023-04-19T00:08:28;99963.94;;;11.39;53.11
45253;BME280;63171;50.520;30.486;2023-04-19T00:09:18;99972.63;;;11.39;53.37
45253;BME280;63171;50.520;30.486;2023-04-19T00:10:09;99969.06;;;11.40;53.27
45253;BME280;63171;50.520;30.486;2023-04-19T00:10:58;99960.00;;;11.32;52.97
45253;BME280;63171;50.520;30.486;2023-04-19T00:11:49;99975.00;;;11.30;53.00
45253;BME280;63171;50.520;30.486;2023-04-19T00:12:39;99963.34;;;11.34;53.11
45253;BME280;63171;50.520;30.486;2023-04-19T00:13:30;99969.44;;;11.34;53.21
45253;BME280;63171;50.520;30.486;2023-04-19T00:14:20;99964.41;;;11.31;52.91
45253;BME280;63171;50.520;30.486;2023-04-19T00:15:11;99969.09;;;11.26;53.08
45253;BME280;63171;50.520;30.486;2023-04-19T00:16:01;99967.75;;;11.33;53.10
45253;BME280;63171;50.520;30.486;2023-04-19T00:16:52;99967.81;;;11.19;52.84
45253;BME280;63171;50.520;30.486;2023-04-19T00:17:41;99966.00;;;11.19;53.00
45253;BME280;63171;50.520;30.486;2023-04-19T00:18:34;99968.91;;;11.29;53.03
45253;BME280;63171;50.520;30.486;2023-04-19T00:19:23;99964.31;;;11.33;53.16
45253;BME280;63171;50.520;30.486;2023-04-19T00:20:14;99964.88;;;11.38;53.15
45253;BME280;63171;50.520;30.486;2023-04-19T00:21:05;99964.88;;;11.38;53.13
45253;BME280;63171;50.520;30.486;2023-04-19T00:21:56;99958.59;;;11.40;53.13
45253;BME280;63171;50.520;30.486;2023-04-19T00:22:45;99957.09;;;11.36;52.93
45253;BME280;63171;50.520;30.486;2023-04-19T00:23:36;99960.66;;;11.35;53.07
45253;BME280;63171;50.520;30.486;2023-04-19T00:24:26;99953.66;;;11.36;53.02
45253;BME280;63171;50.520;30.486;2023-04-19T00:25:17;99959.63;;;11.38;52.95
45253;BME280;63171;50.520;30.486;2023-04-19T00:26:06;99958.03;;;11.35;52.90
45253;BME280;63171;50.520;30.486;2023-04-19T00:27:00;99956.34;;;11.34;52.92
45253;BME280;63171;50.520;30.486;2023-04-19T00:27:50;99958.13;;;11.34;53.02
45253;BME280;63171;50.520;30.486;2023-04-19T00:28:41;99960.47;;;11.38;52.79
45253;BME280;63171;50.520;30.486;2023-04-19T00:29:32;99956.53;;;11.31;52.73
45253;BME280;63171;50.520;30.486;2023-04-19T00:30:22;99960.41;;;11.25;52.68
45253;BME280;63171;50.520;30.486;2023-04-19T00:31:13;99960.66;;;11.35;52.97
45253;BME280;63171;50.520;30.486;2023-04-19T00:32:04;99960.47;;;11.38;52.71
45253;BME280;63171;50.520;30.486;2023-04-19T00:32:54;99948.28;;;11.37;52.82
45253;BME280;63171;50.520;30.486;2023-04-19T00:33:49;99952.03;;;11.33;52.69
45253;BME280;63171;50.520;30.486;2023-04-19T00:34:39;99951.94;;;11.35;52.77
45253;BME280;63171;50.520;30.486;2023-04-19T00:35:29;99948.66;;;11.31;52.71
45253;BME280;63171;50.520;30.486;2023-04-19T00:36:19;99945.78;;;11.36;52.71
45253;BME280;63171;50.520;30.486;2023-04-19T00:37:10;99945.09;;;11.32;52.81
45253;BME280;63171;50.520;30.486;2023-04-19T00:37:59;99936.13;;;11.36;52.86
45253;BME280;63171;50.520;30.486;2023-04-19T00:38:49;99944.94;;;11.35;52.67
45253;BME280;63171;50.520;30.486;2023-04-19T00:39:40;99943.22;;;11.34;52.78
45253;BME280;63171;50.520;30.486;2023-04-19T00:40:30;99944.94;;;11.35;52.84
45253;BME280;63171;50.520;30.486;2023-04-19T00:41:21;99937.81;;;11.37;52.78
45253;BME280;63171;50.520;30.486;2023-04-19T00:42:11;99944.00;;;11.36;52.86
45253;BME280;63171;50.520;30.486;2023-04-19T00:43:02;99945.69;;;11.37;52.96
45253;BME280;63171;50.520;30.486;2023-04-19T00:43:51;99945.84;;;11.34;52.72
45253;BME280;63171;50.520;30.486;2023-04-19T00:44:43;99940.53;;;11.36;52.75
45253;BME280;63171;50.520;30.486;2023-04-19T00:45:34;99942.22;;;11.37;52.65
45253;BME280;63171;50.520;30.486;2023-04-19T00:46:24;99941.38;;;11.36;52.62
45253;BME280;63171;50.520;30.486;2023-04-19T00:47:14;99935.19;;;11.37;52.65
45253;BME280;63171;50.520;30.486;2023-04-19T00:48:05;99936.13;;;11.36;52.75
45253;BME280;63171;50.520;30.486;2023-04-19T00:48:58;99935.28;;;11.36;52.51
45253;BME280;63171;50.520;30.486;2023-04-19T00:49:49;99929.22;;;11.35;52.67
45253;BME280;63171;50.520;30.486;2023-04-19T00:50:39;99940.38;;;11.24;52.53
45253;BME280;63171;50.520;30.486;2023-04-19T00:51:30;99945.41;;;11.28;52.51
45253;BME280;63171;50.520;30.486;2023-04-19T00:52:20;99943.63;;;11.28;52.54
45253;BME280;63171;50.520;30.486;2023-04-19T00:53:11;99932.94;;;11.31;52.49
45253;BME280;63171;50.520;30.486;2023-04-19T00:54:02;99938.38;;;11.28;52.61
45253;BME280;63171;50.520;30.486;2023-04-19T00:54:52;99931.38;;;11.29;52.79
45253;BME280;63171;50.520;30.486;2023-04-19T00:55:43;99933.25;;;11.27;52.77
45253;BME280;63171;50.520;30.486;2023-04-19T00:56:34;99934.09;;;11.27;52.75
45253;BME280;63171;50.520;30.486;2023-04-19T00:57:24;99929.59;;;11.29;52.76
45253;BME280;63171;50.520;30.486;2023-04-19T00:58:16;99928.75;;;11.29;52.74
45253;BME280;63171;50.520;30.486;2023-04-19T00:59:06;99932.09;;;11.31;52.83
45253;BME280;63171;50.520;30.486;2023-04-19T00:59:57;99922.66;;;11.28;52.80
45253;BME280;63171;50.520;30.486;2023-04-19T01:00:46;99924.22;;;11.31;52.97
45253;BME280;63171;50.520;30.486;2023-04-19T01:01:37;99926.00;;;11.30;53.10
45253;BME280;63171;50.520;30.486;2023-04-19T01:02:27;99920.97;;;11.27;52.68
45253;BME280;63171;50.520;30.486;2023-04-19T01:03:18;99930.63;;;11.27;53.01
45253;BME280;63171;50.520;30.486;2023-04-19T01:04:10;99926.31;;;11.25;53.01
45253;BME280;63171;50.520;30.486;2023-04-19T01:05:02;99933.34;;;11.25;52.95
45253;BME280;63171;50.520;30.486;2023-04-19T01:05:52;99927.00;;;11.15;52.84
45253;BME280;63171;50.520;30.486;2023-04-19T01:06:42;99924.28;;;11.16;53.03
45253;BME280;63171;50.520;30.486;2023-04-19T01:07:33;99931.94;;;11.19;52.99
45253;BME280;63171;50.520;30.486;2023-04-19T01:08:23;99923.22;;;11.19;52.96
45253;BME280;63171;50.520;30.486;2023-04-19T01:09:16;99927.19;;;11.12;52.97
45253;BME280;63171;50.520;30.486;2023-04-19T01:10:06;99922.91;;;11.11;52.96
45253;BME280;63171;50.520;30.486;2023-04-19T01:10:56;99924.94;;;11.06;52.92
45253;BME280;63171;50.520;30.486;2023-04-19T01:11:47;99922.16;;;11.09;53.00
45253;BME280;63171;50.520;30.486;2023-04-19T01:12:37;99924.69;;;11.10;52.92
45253;BME280;63171;50.520;30.486;2023-04-19T01:13:28;99919.25;;;11.13;52.97
45253;BME280;63171;50.520;30.486;2023-04-19T01:14:18;99920.19;;;11.12;53.01
45253;BME280;63171;50.520;30.486;2023-04-19T01:15:09;99920.06;;;11.14;53.04
45253;BME280;63171;50.520;30.486;2023-04-19T01:15:59;99921.84;;;11.13;53.12
45253;BME280;63171;50.520;30.486;2023-04-19T01:16:50;99920.19;;;11.12;53.02
45253;BME280;63171;50.520;30.486;2023-04-19T01:17:41;99916.72;;;11.12;53.09
45253;BME280;63171;50.520;30.486;2023-04-19T01:18:32;99915.69;;;11.14;53.15
45253;BME280;63171;50.520;30.486;2023-04-19T01:19:28;99912.22;;;11.14;52.97
45253;BME280;63171;50.520;30.486;2023-04-19T01:20:19;99920.19;;;11.12;53.16
45253;BME280;63171;50.520;30.486;2023-04-19T01:21:09;99918.41;;;11.13;53.14
45253;BME280;63171;50.520;30.486;2023-04-19T01:22:00;99912.31;;;11.12;53.20
45253;BME280;63171;50.520;30.486;2023-04-19T01:22:53;99911.47;;;11.12;53.22
45253;BME280;63171;50.520;30.486;2023-04-19T01:23:43;99914.84;;;11.14;53.31
45253;BME280;63171;50.520;30.486;2023-04-19T01:24:33;99910.53;;;11.13;53.19
45253;BME280;63171;50.520;30.486;2023-04-19T01:25:24;99908.00;;;11.11;53.28
45253;BME280;63171;50.520;30.486;2023-04-19T01:26:13;99907.06;;;11.12;53.33
45253;BME280;63171;50.520;30.486;2023-04-19T01:27:04;99914.19;;;11.10;53.33
45253;BME280;63171;50.520;30.486;2023-04-19T01:27:54;99916.91;;;11.09;53.54
45253;BME280;63171;50.520;30.486;2023-04-19T01:28:46;99913.34;;;11.10;53.36
45253;BME280;63171;50.520;30.486;2023-04-19T01:29:36;99912.53;;;11.09;53.44
45253;BME280;63171;50.520;30.486;2023-04-19T01:30:26;99903.88;;;11.07;53.52
45253;BME280;63171;50.520;30.486;2023-04-19T01:31:18;99904.72;;;11.08;53.41
45253;BME280;63171;50.520;30.486;2023-04-19T01:32:08;99908.28;;;11.07;53.63
45253;BME280;63171;50.520;30.486;2023-04-19T01:32:58;99910.06;;;11.06;53.47
45253;BME280;63171;50.520;30.486;2023-04-19T01:33:48;99905.88;;;11.04;53.57
45253;BME280;63171;50.520;30.486;2023-04-19T01:34:39;99909.44;;;11.03;53.71
45253;BME280;63171;50.520;30.486;2023-04-19T01:35:29;99909.53;;;11.01;53.68
45253;BME280;63171;50.520;30.486;2023-04-19T01:36:19;99910.00;;;10.93;53.69
45253;BME280;63171;50.520;30.486;2023-04-19T01:37:08;99911.97;;;10.90;53.70
45253;BME280;63171;50.520;30.486;2023-04-19T01:38:00;99906.44;;;10.94;53.72
45253;BME280;63171;50.520;30.486;2023-04-19T01:38:50;99911.69;;;10.94;53.86
45253;BME280;63171;50.520;30.486;2023-04-19T01:39:40;99910.09;;;10.92;53.59
45253;BME280;63171;50.520;30.486;2023-04-19T01:40:30;99905.59;;;10.94;53.82
45253;BME280;63171;50.520;30.486;2023-04-19T01:41:20;99910.50;;;10.86;53.90
45253;BME280;63171;50.520;30.486;2023-04-19T01:42:15;99907.78;;;10.87;54.01
45253;BME280;63171;50.520;30.486;2023-04-19T01:43:06;99906.41;;;10.82;54.17
45253;BME280;63171;50.520;30.486;2023-04-19T01:43:55;99909.19;;;10.79;54.24
45253;BME280;63171;50.520;30.486;2023-04-19T01:44:45;99902.25;;;10.78;54.11
45253;BME280;63171;50.520;30.486;2023-04-19T01:45:35;99903.84;;;10.80;54.21
45253;BME280;63171;50.520;30.486;2023-04-19T01:46:25;99903.94;;;10.79;54.57
45253;BME280;63171;50.520;30.486;2023-04-19T01:47:16;99904.03;;;10.77;54.53
45253;BME280;63171;50.520;30.486;2023-04-19T01:48:06;99908.84;;;10.71;54.57
45253;BME280;63171;50.520;30.486;2023-04-19T01:48:57;99902.66;;;10.72;54.39
45253;BME280;63171;50.520;30.486;2023-04-19T01:49:47;99900.31;;;10.67;54.74
45253;BME280;63171;50.520;30.486;2023-04-19T01:50:38;99896.94;;;10.65;54.77
45253;BME280;63171;50.520;30.486;2023-04-19T01:51:28;99898.47;;;10.69;54.98
45253;BME280;63171;50.520;30.486;2023-04-19T01:52:19;99898.63;;;10.66;55.09
45253;BME280;63171;50.520;30.486;2023-04-19T01:53:12;99902.38;;;10.62;55.04
45253;BME280;63171;50.520;30.486;2023-04-19T01:54:03;99903.13;;;10.64;55.19
45253;BME280;63171;50.520;30.486;2023-04-19T01:54:53;99899.03;;;10.60;55.19
45253;BME280;63171;50.520;30.486;2023-04-19T01:55:43;99896.41;;;10.60;55.34
45253;BME280;63171;50.520;30.486;2023-04-19T01:56:33;99903.31;;;10.61;55.31
45253;BME280;63171;50.520;30.486;2023-04-19T01:57:24;99898.81;;;10.63;55.63
45253;BME280;63171;50.520;30.486;2023-04-19T01:58:15;99907.81;;;10.59;55.62
45253;BME280;63171;50.520;30.486;2023-04-19T01:59:04;99895.47;;;10.61;55.75
45253;BME280;63171;50.520;30.486;2023-04-19T01:59:54;99899.22;;;10.57;55.71
45253;BME280;63171;50.520;30.486;2023-04-19T02:00:44;99897.81;;;10.37;55.66
45253;BME280;63171;50.520;30.486;2023-04-19T02:01:34;99903.53;;;10.44;55.97
45253;BME280;63171;50.520;30.486;2023-04-19T02:02:25;99901.25;;;10.52;56.14
45253;BME280;63171;50.520;30.486;2023-04-19T02:03:15;99904.81;;;10.51;56.09
45253;BME280;63171;50.520;30.486;2023-04-19T02:04:06;99903.78;;;10.53;56.30
45253;BME280;63171;50.520;30.486;2023-04-19T02:04:56;99905.84;;;10.48;56.14
45253;BME280;63171;50.520;30.486;2023-04-19T02:05:46;99903.69;;;10.41;56.26
45253;BME280;63171;50.520;30.486;2023-04-19T02:06:35;99909.50;;;10.46;56.35
45253;BME280;63171;50.520;30.486;2023-04-19T02:07:26;99900.72;;;10.47;56.47
45253;BME280;63171;50.520;30.486;2023-04-19T02:08:18;99907.53;;;10.49;56.38
45253;BME280;63171;50.520;30.486;2023-04-19T02:09:09;99900.41;;;10.51;56.69
45253;BME280;63171;50.520;30.486;2023-04-19T02:09:59;99905.66;;;10.51;56.53
45253;BME280;63171;50.520;30.486;2023-04-19T02:10:50;99905.75;;;10.50;56.60
45253;BME280;63171;50.520;30.486;2023-04-19T02:11:40;99905.84;;;10.48;56.56
45253;BME280;63171;50.520;30.486;2023-04-19T02:12:31;99902.28;;;10.49;56.79
45253;BME280;63171;50.520;30.486;2023-04-19T02:13:21;99907.53;;;10.49;56.80
45253;BME280;63171;50.520;30.486;2023-04-19T02:14:12;99899.97;;;10.45;56.82
45253;BME280;63171;50.520;30.486;2023-04-19T02:15:02;99904.06;;;10.49;56.72
45253;BME280;63171;50.520;30.486;2023-04-19T02:15:52;99893.50;;;10.50;56.99
45253;BME280;63171;50.520;30.486;2023-04-19T02:16:42;99894.34;;;10.51;56.95
45253;BME280;63171;50.520;30.486;2023-04-19T02:17:33;99902.19;;;10.51;56.95
45253;BME280;63171;50.520;30.486;2023-04-19T02:18:23;99889.09;;;10.51;56.80
45253;BME280;63171;50.520;30.486;2023-04-19T02:19:14;99896.22;;;10.49;56.95
45253;BME280;63171;50.520;30.486;2023-04-19T02:20:05;99900.50;;;10.50;57.18
45253;BME280;63171;50.520;30.486;2023-04-19T02:20:57;99890.13;;;10.48;56.97
45253;BME280;63171;50.520;30.486;2023-04-19T02:21:47;99891.16;;;10.46;56.99
45253;BME280;63171;50.520;30.486;2023-04-19T02:22:38;99885.09;;;10.45;57.06
45253;BME280;63171;50.520;30.486;2023-04-19T02:23:29;99889.41;;;10.46;57.11
45253;BME280;63171;50.520;30.486;2023-04-19T02:24:20;99893.88;;;10.44;57.19
45253;BME280;63171;50.520;30.486;2023-04-19T02:25:09;99896.59;;;10.43;57.10
45253;BME280;63171;50.520;30.486;2023-04-19T02:26:00;99887.91;;;10.42;57.46
45253;BME280;63171;50.520;30.486;2023-04-19T02:26:51;99889.69;;;10.42;57.02
45253;BME280;63171;50.520;30.486;2023-04-19T02:27:42;99893.16;;;10.42;57.18
45253;BME280;63171;50.520;30.486;2023-04-19T02:28:32;99882.19;;;10.35;57.17
45253;BME280;63171;50.520;30.486;2023-04-19T02:29:22;99889.84;;;10.39;57.22
45253;BME280;63171;50.520;30.486;2023-04-19T02:30:13;99893.59;;;10.34;57.19
45253;BME280;63171;50.520;30.486;2023-04-19T02:31:03;99891.63;;;10.24;57.05
45253;BME280;63171;50.520;30.486;2023-04-19T02:31:57;99891.38;;;10.28;57.35
45253;BME280;63171;50.520;30.486;2023-04-19T02:32:47;99890.34;;;10.31;57.13
45253;BME280;63171;50.520;30.486;2023-04-19T02:33:37;99888.81;;;10.27;57.36
45253;BME280;63171;50.520;30.486;2023-04-19T02:34:27;99888.66;;;10.30;57.44
45253;BME280;63171;50.520;30.486;2023-04-19T02:35:17;99899.03;;;10.31;57.44
45253;BME280;63171;50.520;30.486;2023-04-19T02:36:07;99885.19;;;10.29;57.31
45253;BME280;63171;50.520;30.486;2023-04-19T02:36:59;99886.69;;;10.33;57.50
45253;BME280;63171;50.520;30.486;2023-04-19T02:37:51;99885.84;;;10.33;57.57
45253;BME280;63171;50.520;30.486;2023-04-19T02:38:43;99892.84;;;10.32;57.58
45253;BME280;63171;50.520;30.486;2023-04-19T02:39:33;99891.19;;;10.31;57.52
45253;BME280;63171;50.520;30.486;2023-04-19T02:40:23;99894.63;;;10.32;57.52
45253;BME280;63171;50.520;30.486;2023-04-19T02:41:13;99891.28;;;10.30;57.45
45253;BME280;63171;50.520;30.486;2023-04-19T02:42:04;99899.13;;;10.30;57.68
45253;BME280;63171;50.520;30.486;2023-04-19T02:42:55;99896.66;;;10.27;57.42
45253;BME280;63171;50.520;30.486;2023-04-19T02:43:45;99896.03;;;10.23;57.62
45253;BME280;63171;50.520;30.486;2023-04-19T02:44:36;99897.69;;;10.24;57.77
45253;BME280;63171;50.520;30.486;2023-04-19T02:45:26;99895.19;;;10.23;57.52
45253;BME280;63171;50.520;30.486;2023-04-19T02:46:17;99900.22;;;10.26;57.54
45253;BME280;63171;50.520;30.486;2023-04-19T02:47:08;99896.75;;;10.25;57.64
45253;BME280;63171;50.520;30.486;2023-04-19T02:47:58;99896.84;;;10.24;57.64
45253;BME280;63171;50.520;30.486;2023-04-19T02:48:49;99894.16;;;10.25;57.69
45253;BME280;63171;50.520;30.486;2023-04-19T02:49:39;99899.56;;;10.22;57.80
45253;BME280;63171;50.520;30.486;2023-04-19T02:50:32;99897.00;;;10.21;57.58
45253;BME280;63171;50.520;30.486;2023-04-19T02:51:22;99891.63;;;10.24;57.72
45253;BME280;63171;50.520;30.486;2023-04-19T02:52:13;99891.63;;;10.24;57.91
45253;BME280;63171;50.520;30.486;2023-04-19T02:53:04;99895.19;;;10.23;57.95
45253;BME280;63171;50.520;30.486;2023-04-19T02:53:57;99896.03;;;10.23;57.87
45253;BME280;63171;50.520;30.486;2023-04-19T02:54:47;99891.88;;;10.19;57.90
45253;BME280;63171;50.520;30.486;2023-04-19T02:55:38;99888.88;;;10.11;57.88
45253;BME280;63171;50.520;30.486;2023-04-19T02:56:32;99894.84;;;10.13;57.84
45253;BME280;63171;50.520;30.486;2023-04-19T02:57:24;99900.84;;;10.15;57.93
45253;BME280;63171;50.520;30.486;2023-04-19T02:58:14;99895.97;;;10.09;58.11
45253;BME280;63171;50.520;30.486;2023-04-19T02:59:16;99906.13;;;9.99;57.91
45253;BME280;63171;50.520;30.486;2023-04-19T03:00:08;99899.31;;;9.97;57.83
45253;BME280;63171;50.520;30.486;2023-04-19T03:01:01;99903.38;;;10.02;58.10
45253;BME280;63171;50.520;30.486;2023-04-19T03:01:52;99900.28;;;10.10;58.14
45253;BME280;63171;50.520;30.486;2023-04-19T03:02:43;99897.66;;;10.10;58.11
45253;BME280;63171;50.520;30.486;2023-04-19T03:03:33;99902.03;;;10.10;58.35
45253;BME280;63171;50.520;30.486;2023-04-19T03:04:23;99901.50;;;10.04;58.18
45253;BME280;63171;50.520;30.486;2023-04-19T03:05:14;99897.75;;;10.08;58.24
45253;BME280;63171;50.520;30.486;2023-04-19T03:06:04;99904.00;;;10.06;58.31
45253;BME280;63171;50.520;30.486;2023-04-19T03:06:56;99900.47;;;10.07;58.31
45253;BME280;63171;50.520;30.486;2023-04-19T03:07:46;99900.91;;;10.14;58.34
45253;BME280;63171;50.520;30.486;2023-04-19T03:08:37;99896.38;;;10.17;58.47
45253;BME280;63171;50.520;30.486;2023-04-19T03:09:28;99897.13;;;10.19;58.63
45253;BME280;63171;50.520;30.486;2023-04-19T03:10:20;99899.81;;;10.18;58.53
45253;BME280;63171;50.520;30.486;2023-04-19T03:11:10;99896.94;;;10.22;58.58
45253;BME280;63171;50.520;30.486;2023-04-19T03:12:01;99891.72;;;10.22;58.56
45253;BME280;63171;50.520;30.486;2023-04-19T03:12:51;99892.47;;;10.24;58.46
45253;BME280;63171;50.520;30.486;2023-04-19T03:13:42;99899.22;;;10.28;58.68
45253;BME280;63171;50.520;30.486;2023-04-19T03:14:32;99892.28;;;10.27;58.71
45253;BME280;63171;50.520;30.486;2023-04-19T03:15:23;99892.56;;;10.23;58.81
45253;BME280;63171;50.520;30.486;2023-04-19T03:16:12;99894.81;;;10.29;58.61
45253;BME280;63171;50.520;30.486;2023-04-19T03:17:05;99894.72;;;10.30;58.64
45253;BME280;63171;50.520;30.486;2023-04-19T03:17:56;99888.16;;;10.38;58.75
45253;BME280;63171;50.520;30.486;2023-04-19T03:18:47;99889.75;;;10.40;58.71
45253;BME280;63171;50.520;30.486;2023-04-19T03:19:36;99891.44;;;10.41;58.83
45253;BME280;63171;50.520;30.486;2023-04-19T03:20:28;99885.94;;;10.46;58.42
45253;BME280;63171;50.520;30.486;2023-04-19T03:21:19;99883.22;;;10.47;58.83
45253;BME280;63171;50.520;30.486;2023-04-19T03:22:15;99896.41;;;10.46;58.84
45253;BME280;63171;50.520;30.486;2023-04-19T03:23:05;99889.94;;;10.51;58.84
45253;BME280;63171;50.520;30.486;2023-04-19T03:23:57;99883.66;;;10.54;58.79
45253;BME280;63171;50.520;30.486;2023-04-19T03:24:49;99885.09;;;10.59;58.73
45253;BME280;63171;50.520;30.486;2023-04-19T03:25:45;99885.53;;;10.66;58.87
45253;BME280;63171;50.520;30.486;2023-04-19T03:26:46;99880.19;;;10.68;59.06
45253;BME280;63171;50.520;30.486;2023-04-19T03:27:40;99880.03;;;10.71;58.82
45253;BME280;63171;50.520;30.486;2023-04-19T03:28:34;99880.38;;;10.79;59.00
45253;BME280;63171;50.520;30.486;2023-04-19T03:29:43;99877.38;;;10.85;58.91
45253;BME280;63171;50.520;30.486;2023-04-19T03:30:34;99881.38;;;10.90;58.84
45253;BME280;63171;50.520;30.486;2023-04-19T03:31:25;99877.81;;;10.91;58.72
45253;BME280;63171;50.520;30.486;2023-04-19T03:32:16;99879.22;;;10.97;58.81
45253;BME280;63171;50.520;30.486;2023-04-19T03:33:06;99877.03;;;11.04;58.66
45253;BME280;63171;50.520;30.486;2023-04-19T03:33:56;99874.22;;;11.07;58.56
45253;BME280;63171;50.520;30.486;2023-04-19T03:34:51;99879.09;;;11.13;58.53
45253;BME280;63171;50.520;30.486;2023-04-19T03:35:42;99873.75;;;11.14;58.62
45253;BME280;63171;50.520;30.486;2023-04-19T03:36:34;99876.88;;;11.19;58.44
45253;BME280;63171;50.520;30.486;2023-04-19T03:37:25;99881.13;;;11.22;58.45
45253;BME280;63171;50.520;30.486;2023-04-19T03:38:16;99875.38;;;11.30;58.47
45253;BME280;63171;50.520;30.486;2023-04-19T03:39:06;99877.59;;;11.36;58.49
45253;BME280;63171;50.520;30.486;2023-04-19T03:39:59;99878.03;;;11.42;58.44
45253;BME280;63171;50.520;30.486;2023-04-19T03:40:56;99877.09;;;11.43;58.17
45253;BME280;63171;50.520;30.486;2023-04-19T03:41:49;99876.78;;;11.48;58.22
45253;BME280;63171;50.520;30.486;2023-04-19T03:42:59;99874.81;;;11.51;58.18
45253;BME280;63171;50.520;30.486;2023-04-19T03:43:52;99874.38;;;11.58;58.07
45253;BME280;63171;50.520;30.486;2023-04-19T03:44:46;99872.84;;;11.68;58.19
45253;BME280;63171;50.520;30.486;2023-04-19T03:45:37;99875.06;;;11.74;57.99
45253;BME280;63171;50.520;30.486;2023-04-19T03:46:28;99868.50;;;11.81;57.99
45253;BME280;63171;50.520;30.486;2023-04-19T03:47:20;99869.84;;;11.87;58.06
45253;BME280;63171;50.520;30.486;2023-04-19T03:48:17;99874.81;;;11.91;57.93
45253;BME280;63171;50.520;30.486;2023-04-19T03:49:06;99874.59;;;11.94;57.80
45253;BME280;63171;50.520;30.486;2023-04-19T03:49:57;99866.19;;;12.02;57.80
45253;BME280;63171;50.520;30.486;2023-04-19T03:50:47;99873.97;;;12.03;57.45
45253;BME280;63171;50.520;30.486;2023-04-19T03:51:51;99873.88;;;12.05;57.29
45253;BME280;63171;50.520;30.486;2023-04-19T03:52:42;99866.63;;;12.08;57.30
45253;BME280;63171;50.520;30.486;2023-04-19T03:53:35;99861.78;;;12.15;57.19
45253;BME280;63171;50.520;30.486;2023-04-19T03:54:26;99867.78;;;12.17;57.14
45253;BME280;63171;50.520;30.486;2023-04-19T03:55:19;99871.88;;;12.21;56.93
45253;BME280;63171;50.520;30.486;2023-04-19T03:56:10;99867.03;;;12.28;57.11
45253;BME280;63171;50.520;30.486;2023-04-19T03:57:00;99864.41;;;12.28;56.74
45253;BME280;63171;50.520;30.486;2023-04-19T03:57:51;99873.97;;;12.29;56.80
45253;BME280;63171;50.520;30.486;2023-04-19T03:58:49;99867.69;;;12.31;56.62
45253;BME280;63171;50.520;30.486;2023-04-19T03:59:40;99868.59;;;12.43;56.40
45253;BME280;63171;50.520;30.486;2023-04-19T04:00:31;99863.78;;;12.37;56.41
45253;BME280;63171;50.520;30.486;2023-04-19T04:01:25;99866.94;;;12.42;56.22
45253;BME280;63171;50.520;30.486;2023-04-19T04:02:16;99869.00;;;12.50;55.78
45253;BME280;63171;50.520;30.486;2023-04-19T04:03:07;99872.13;;;12.55;56.08
45253;BME280;63171;50.520;30.486;2023-04-19T04:03:57;99871.31;;;12.54;56.09
45253;BME280;63171;50.520;30.486;2023-04-19T04:04:52;99874.59;;;12.45;56.02
45253;BME280;63171;50.520;30.486;2023-04-19T04:05:44;99868.91;;;12.51;55.99
45253;BME280;63171;50.520;30.486;2023-04-19T04:06:35;99874.25;;;12.62;55.93
45253;BME280;63171;50.520;30.486;2023-04-19T04:07:25;99870.03;;;12.72;56.00
45253;BME280;63171;50.520;30.486;2023-04-19T04:08:16;99872.94;;;12.68;55.81
45253;BME280;63171;50.520;30.486;2023-04-19T04:09:06;99875.00;;;12.52;55.49
45253;BME280;63171;50.520;30.486;2023-04-19T04:09:57;99874.81;;;12.42;55.52
45253;BME280;63171;50.520;30.486;2023-04-19T04:10:48;99876.19;;;12.22;55.16
45253;BME280;63171;50.520;30.486;2023-04-19T04:11:40;99872.09;;;12.05;55.05
45253;BME280;63171;50.520;30.486;2023-04-19T04:12:30;99881.53;;;12.21;55.28
45253;BME280;63171;50.520;30.486;2023-04-19T04:13:22;99874.59;;;12.20;55.18
45253;BME280;63171;50.520;30.486;2023-04-19T04:14:23;99879.13;;;12.05;55.08
45253;BME280;63171;50.520;30.486;2023-04-19T04:15:14;99875.34;;;12.22;55.30
45253;BME280;63171;50.520;30.486;2023-04-19T04:16:18;99877.75;;;12.25;55.13
45253;BME280;63171;50.520;30.486;2023-04-19T04:17:14;99877.44;;;12.04;55.05
45253;BME280;63171;50.520;30.486;2023-04-19T04:18:07;99878.38;;;12.03;55.09
45253;BME280;63171;50.520;30.486;2023-04-19T04:18:58;99878.28;;;12.17;55.12
45253;BME280;63171;50.520;30.486;2023-04-19T04:19:54;99869.47;;;12.18;54.94
45253;BME280;63171;50.520;30.486;2023-04-19T04:20:52;99872.19;;;11.91;54.65
45253;BME280;63171;50.520;30.486;2023-04-19T04:21:42;99876.06;;;11.98;54.90
45253;BME280;63171;50.520;30.486;2023-04-19T04:22:34;99870.28;;;11.93;54.79
45253;BME280;63171;50.520;30.486;2023-04-19T04:23:30;99873.31;;;12.00;55.00
45253;BME280;63171;50.520;30.486;2023-04-19T04:24:25;99878.63;;;11.73;54.75
45253;BME280;63171;50.520;30.486;2023-04-19T04:25:37;99875.63;;;11.79;55.18
45253;BME280;63171;50.520;30.486;2023-04-19T04:26:34;99873.75;;;11.94;55.10
45253;BME280;63171;50.520;30.486;2023-04-19T04:27:37;99871.84;;;11.83;55.04
45253;BME280;63171;50.520;30.486;2023-04-19T04:28:32;99873.22;;;12.01;55.27
45253;BME280;63171;50.520;30.486;2023-04-19T04:29:23;99874.94;;;12.02;55.13
45253;BME280;63171;50.520;30.486;2023-04-19T04:30:18;99872.94;;;12.06;55.22
45253;BME280;63171;50.520;30.486;2023-04-19T04:31:07;99869.75;;;12.01;55.24